AYPY/POM METAR and TAF weather

Enter ICAO airport designator
Station Type Date Time Source
AYPY METAR 2020/02/16 19:00 UTC NOAA

AYPY 161900Z 33005KT 9999 FEW050 23/23 Q1008


Station Type Date Time Source
AYPY Decoded METAR 2020/02/16 19:00 UTC NOAA

Moresby, Papua New Guinea (AYPY) 09-26S 147-13E 49M
Feb 16, 2020 - 02:00 PM EST / 2020.02.16 1900 UTC
Wind: from the NNW (330 degrees) at 6 MPH (5 KT):0
Visibility: greater than 7 mile(s):0
Sky conditions: mostly clear
Temperature: 73 F (23 C)
Dew Point: 73 F (23 C)
Relative Humidity: 100%
Pressure (altimeter): 29.77 in. Hg (1008 hPa)
ob: AYPY 161900Z 33005KT 9999 FEW050 23/23 Q1008
cycle: 19

Station Type Date Time Source
AYPY TAF 2020/02/16 18:30 UTC NOAA

TAF TAF AYPY 161500Z 1618/1718 32010KT 9999 SCT020

Example: see airport list